TimePDT,TemperatureF,Dew PointF,Humidity,Sea Level PressureIn,VisibilityMPH,Wind Direction,Wind SpeedMPH,Gust SpeedMPH,PrecipitationIn,Events,Conditions,WindDirDegrees,DateUTC
12:15 AM,57.2,46.4,67,30.04,10.0,NW,8.1,-,N/A,,Clear,320,2013-06-20 07:15:00
12:35 AM,57.2,46.4,67,30.04,10.0,NNW,5.8,-,N/A,,Clear,330,2013-06-20 07:35:00
12:55 AM,55.4,46.4,72,30.04,10.0,NNW,8.1,-,N/A,,Clear,330,2013-06-20 07:55:00
1:15 AM,55.4,46.4,72,30.03,10.0,NNW,4.6,-,N/A,,Clear,330,2013-06-20 08:15:00
1:35 AM,55.4,46.4,72,30.03,10.0,NNW,6.9,-,N/A,,Clear,330,2013-06-20 08:35:00
1:55 AM,55.4,46.4,72,30.02,10.0,NW,6.9,-,N/A,,Clear,320,2013-06-20 08:55:00
2:15 AM,55.4,46.4,72,30.02,10.0,NNW,6.9,-,N/A,,Clear,330,2013-06-20 09:15:00
2:35 AM,53.6,46.4,77,30.02,10.0,NNW,5.8,-,N/A,,Clear,330,2013-06-20 09:35:00
2:55 AM,53.6,46.4,77,30.02,10.0,NNW,4.6,-,N/A,,Clear,330,2013-06-20 09:55:00
3:15 AM,53.6,46.4,77,30.01,10.0,NNW,4.6,-,N/A,,Clear,330,2013-06-20 10:15:00
3:35 AM,53.6,46.4,77,30.01,10.0,NNW,4.6,-,N/A,,Clear,340,2013-06-20 10:35:00
3:55 AM,51.8,46.4,82,30.01,10.0,Calm,Calm,-,N/A,,Clear,0,2013-06-20 10:55:00
4:15 AM,51.8,46.4,82,30.01,10.0,NW,3.5,-,N/A,,Clear,320,2013-06-20 11:15:00
4:35 AM,51.8,46.4,82,30.01,10.0,Calm,Calm,-,N/A,,Clear,0,2013-06-20 11:35:00
4:55 AM,51.8,46.4,82,30.01,10.0,Calm,Calm,-,N/A,,Clear,0,2013-06-20 11:55:00
5:15 AM,50.0,46.4,87,30.01,10.0,Calm,Calm,-,N/A,,Clear,0,2013-06-20 12:15:00
5:35 AM,50.0,44.6,82,30.01,10.0,Calm,Calm,-,N/A,,Clear,0,2013-06-20 12:35:00
5:55 AM,48.2,44.6,87,30.02,10.0,Calm,Calm,-,N/A,,Clear,0,2013-06-20 12:55:00
6:15 AM,48.2,42.8,82,30.02,10.0,ESE,3.5,-,N/A,,Clear,120,2013-06-20 13:15:00
6:35 AM,50.0,42.8,76,30.02,10.0,Calm,Calm,-,N/A,,Clear,0,2013-06-20 13:35:00
6:55 AM,50.0,44.6,82,30.02,10.0,Calm,Calm,-,N/A,,Clear,0,2013-06-20 13:55:00
7:15 AM,51.8,44.6,76,30.02,10.0,Calm,Calm,-,N/A,,Clear,0,2013-06-20 14:15:00
7:35 AM,53.6,46.4,77,30.02,10.0,Calm,Calm,-,N/A,,Clear,0,2013-06-20 14:35:00
7:55 AM,55.4,48.2,77,30.02,10.0,NW,3.5,-,N/A,,Clear,310,2013-06-20 14:55:00
8:15 AM,57.2,48.2,72,30.02,10.0,Calm,Calm,-,N/A,,Clear,0,2013-06-20 15:15:00
8:35 AM,59.0,46.4,63,30.02,10.0,Calm,Calm,-,N/A,,Clear,0,2013-06-20 15:35:00
8:55 AM,59.0,48.2,67,30.02,10.0,Calm,Calm,-,N/A,,Clear,0,2013-06-20 15:55:00
9:15 AM,62.6,46.4,55,30.02,10.0,North,8.1,-,N/A,,Clear,350,2013-06-20 16:15:00
9:35 AM,64.4,46.4,52,30.01,10.0,North,10.4,-,N/A,,Clear,350,2013-06-20 16:35:00
9:55 AM,64.4,46.4,52,30.00,10.0,NNW,5.8,-,N/A,,Clear,330,2013-06-20 16:55:00
10:15 AM,66.2,46.4,49,30.00,10.0,North,9.2,-,N/A,,Clear,350,2013-06-20 17:15:00
10:35 AM,68.0,44.6,43,30.00,10.0,NNW,8.1,-,N/A,,Clear,340,2013-06-20 17:35:00
10:55 AM,68.0,44.6,43,29.99,10.0,North,10.4,-,N/A,,Clear,350,2013-06-20 17:55:00
11:15 AM,71.6,44.6,38,29.99,10.0,North,9.2,16.1,N/A,,Clear,350,2013-06-20 18:15:00
11:35 AM,71.6,44.6,38,29.99,10.0,North,8.1,-,N/A,,Clear,350,2013-06-20 18:35:00
11:55 AM,73.4,46.4,38,29.98,10.0,NNW,8.1,-,N/A,,Clear,330,2013-06-20 18:55:00
12:15 PM,73.4,46.4,38,29.98,10.0,NNW,11.5,16.1,N/A,,Clear,330,2013-06-20 19:15:00
12:35 PM,75.2,46.4,36,29.97,10.0,NNW,9.2,-,N/A,,Clear,330,2013-06-20 19:35:00
12:55 PM,77.0,44.6,32,29.97,10.0,NNW,11.5,16.1,N/A,,Clear,340,2013-06-20 19:55:00
1:15 PM,77.0,44.6,32,29.96,10.0,NNW,12.7,18.4,N/A,,Clear,330,2013-06-20 20:15:00
1:35 PM,77.0,41.0,28,29.96,10.0,NNW,16.1,20.7,N/A,,Clear,340,2013-06-20 20:35:00
1:55 PM,78.8,41.0,26,29.95,10.0,North,13.8,23.0,N/A,,Clear,350,2013-06-20 20:55:00
2:15 PM,80.6,41.0,24,29.95,10.0,NNW,16.1,23.0,N/A,,Clear,340,2013-06-20 21:15:00
2:35 PM,80.6,39.2,23,29.94,10.0,NNW,16.1,21.9,N/A,,Clear,330,2013-06-20 21:35:00
2:55 PM,80.6,39.2,23,29.94,10.0,NNW,17.3,24.2,N/A,,Clear,340,2013-06-20 21:55:00
3:15 PM,80.6,37.4,21,29.94,10.0,NNW,13.8,24.2,N/A,,Clear,330,2013-06-20 22:15:00
3:35 PM,80.6,37.4,21,29.94,10.0,NNW,19.6,27.6,N/A,,Clear,340,2013-06-20 22:35:00
3:55 PM,80.6,37.4,21,29.94,10.0,NNW,18.4,28.8,N/A,,Clear,330,2013-06-20 22:55:00
4:15 PM,80.6,35.6,20,29.95,10.0,NNW,16.1,24.2,N/A,,Clear,340,2013-06-20 23:15:00
4:35 PM,80.6,37.4,21,29.95,10.0,NW,19.6,29.9,N/A,,Clear,320,2013-06-20 23:35:00
4:55 PM,78.8,42.8,28,29.95,10.0,NNW,15.0,26.5,N/A,,Clear,330,2013-06-20 23:55:00
5:15 PM,77.0,39.2,26,29.96,10.0,NW,16.1,26.5,N/A,,Clear,310,2013-06-21 00:15:00
5:35 PM,77.0,39.2,26,29.96,10.0,NW,18.4,26.5,N/A,,Clear,320,2013-06-21 00:35:00
5:55 PM,75.2,37.4,25,29.96,10.0,NW,21.9,29.9,N/A,,Clear,320,2013-06-21 00:55:00
6:15 PM,75.2,37.4,25,29.96,10.0,NW,17.3,25.3,N/A,,Clear,320,2013-06-21 01:15:00
6:35 PM,75.2,35.6,24,29.96,10.0,NNW,18.4,26.5,N/A,,Clear,330,2013-06-21 01:35:00
6:55 PM,73.4,37.4,27,29.96,10.0,NW,13.8,27.6,N/A,,Clear,320,2013-06-21 01:55:00
7:15 PM,73.4,41.0,31,29.97,10.0,NW,19.6,26.5,N/A,,Clear,320,2013-06-21 02:15:00
7:35 PM,71.6,41.0,33,29.98,10.0,NW,11.5,24.2,N/A,,Clear,320,2013-06-21 02:35:00
7:55 PM,69.8,41.0,35,29.98,10.0,NNW,17.3,24.2,N/A,,Clear,330,2013-06-21 02:55:00
8:15 PM,68.0,41.0,37,29.99,10.0,NW,12.7,21.9,N/A,,Clear,320,2013-06-21 03:15:00
8:35 PM,66.2,42.8,43,29.99,10.0,NW,12.7,18.4,N/A,,Clear,320,2013-06-21 03:35:00
8:55 PM,64.4,42.8,45,30.00,10.0,NW,10.4,17.3,N/A,,Clear,310,2013-06-21 03:55:00
9:15 PM,64.4,42.8,45,30.01,10.0,NW,10.4,-,N/A,,Clear,310,2013-06-21 04:15:00
9:35 PM,62.6,44.6,52,30.02,10.0,WNW,10.4,-,N/A,,Clear,300,2013-06-21 04:35:00
9:55 PM,62.6,44.6,52,30.02,10.0,WNW,11.5,-,N/A,,Clear,300,2013-06-21 04:55:00
10:15 PM,60.8,44.6,55,30.02,10.0,WNW,6.9,-,N/A,,Clear,290,2013-06-21 05:15:00
10:35 PM,60.8,44.6,55,30.02,10.0,NW,6.9,-,N/A,,Clear,310,2013-06-21 05:35:00
10:55 PM,60.8,42.8,52,30.02,10.0,West,5.8,-,N/A,,Clear,280,2013-06-21 05:55:00
11:15 PM,59.0,42.8,55,30.01,10.0,Calm,Calm,-,N/A,,Clear,0,2013-06-21 06:15:00
11:35 PM,59.0,44.6,59,30.02,10.0,Calm,Calm,-,N/A,,Clear,0,2013-06-21 06:35:00
11:55 PM,57.2,44.6,63,30.01,10.0,North,3.5,-,N/A,,Clear,360,2013-06-21 06:55:00